Time;durP1;ratioP1;P1;durP2;ratioP2;P2;SDS_P1;SDS_P2;PMS_P1;PMS_P2;Temp;Humidity;BMP_temperature;BMP_pressure;BME280_temperature;BME280_humidity;BME280_pressure;Samples;Min_cycle;Max_cycle;Signal;HPM_P1;HPM_P2
2021/12/16 00:01:46;;;;;;;109.42;58.68;;;;;;;2.66;97.17;99409.89;1745356;82;20980;-56
2021/12/16 00:09:36;;;;;;;99.22;52.20;;;;;;;2.72;96.96;99395.70;1739553;82;21512;-57
2021/12/16 00:29:03;;;;;;;99.83;52.58;;;;;;;2.76;97.29;99398.32;1776013;80;38635;-56
2021/12/16 00:33:33;;;;;;;97.47;54.08;;;;;;;2.79;96.06;99397.92;1748649;80;21009;-56
2021/12/16 00:35:51;;;;;;;96.17;50.58;;;;;;;2.84;96.17;99400.02;1765132;80;21412;-57
2021/12/16 00:38:18;;;;;;;99.28;55.08;;;;;;;2.85;96.30;99391.48;1757523;79;21001;-56
2021/12/16 00:40:45;;;;;;;98.27;54.67;;;;;;;2.83;96.67;99387.15;1743272;82;21808;-56
2021/12/16 00:43:19;;;;;;;97.25;54.55;;;;;;;2.83;97.08;99392.50;1744214;82;21035;-57
2021/12/16 00:46:10;;;;;;;104.15;58.50;;;;;;;2.74;98.10;99388.84;1753257;81;20954;-57
2021/12/16 00:56:03;;;;;;;107.97;57.03;;;;;;;2.75;97.78;99391.83;1739312;82;20977;-56
2021/12/16 00:58:39;;;;;;;91.92;51.88;;;;;;;2.76;97.26;99385.45;1765190;81;21037;-56
2021/12/16 01:01:16;;;;;;;91.35;48.80;;;;;;;2.74;97.49;99385.66;1742040;82;21001;-56
2021/12/16 01:03:46;;;;;;;103.55;52.10;;;;;;;2.77;97.25;99383.09;1761696;81;21492;-56
2021/12/16 01:06:31;;;;;;;95.90;51.37;;;;;;;2.78;97.04;99374.85;1762698;80;21029;-56
2021/12/16 01:49:35;;;;;;;78.07;42.15;;;;;;;2.86;97.24;99365.84;1779188;79;21032;-57
2021/12/16 01:52:07;;;;;;;77.08;44.33;;;;;;;2.89;96.96;99365.44;1743281;80;21101;-58
2021/12/16 01:57:23;;;;;;;80.28;43.35;;;;;;;2.88;96.81;99359.77;1748260;80;20518;-59
2021/12/16 01:59:56;;;;;;;84.32;43.70;;;;;;;2.85;97.08;99359.34;1728885;80;22139;-57
2021/12/16 02:05:28;;;;;;;82.42;49.05;;;;;;;2.86;96.99;99348.95;1618605;84;21036;-57
2021/12/16 02:10:38;;;;;;;78.00;40.70;;;;;;;2.83;97.13;99342.98;1729998;81;21040;-57
2021/12/16 02:32:41;;;;;;;84.05;45.65;;;;;;;2.64;97.46;99319.57;1742424;81;21013;-58
2021/12/16 02:35:11;;;;;;;80.67;43.97;;;;;;;2.62;98.42;99326.98;1753236;80;21065;-57
2021/12/16 02:37:24;;;;;;;78.85;39.98;;;;;;;2.59;98.68;99323.37;1771075;79;21096;-57
2021/12/16 02:39:51;;;;;;;70.47;38.08;;;;;;;2.62;98.38;99316.79;1746199;80;21015;-58
2021/12/16 02:42:21;;;;;;;81.87;43.28;;;;;;;2.63;97.62;99312.57;1755710;80;21134;-57
2021/12/16 02:49:47;;;;;;;88.07;43.28;;;;;;;2.61;98.38;99313.80;1710532;81;21031;-57
2021/12/16 02:52:16;;;;;;;83.07;47.62;;;;;;;2.62;98.92;99308.76;1771470;80;21116;-58
2021/12/16 02:54:44;;;;;;;79.75;42.20;;;;;;;2.62;98.81;99308.25;1775100;80;20965;-58
2021/12/16 02:57:11;;;;;;;79.77;44.15;;;;;;;2.65;98.17;99312.37;1775454;80;21430;-58
2021/12/16 02:59:38;;;;;;;73.15;38.70;;;;;;;2.67;97.97;99316.52;1774512;80;22061;-58
2021/12/16 03:02:11;;;;;;;66.42;35.52;;;;;;;2.70;98.02;99309.94;1757755;80;21115;-57
2021/12/16 03:04:39;;;;;;;78.52;41.45;;;;;;;2.73;97.86;99313.55;1744635;81;21064;-58
2021/12/16 03:07:06;;;;;;;68.28;36.33;;;;;;;2.75;97.83;99302.16;1750891;81;21095;-58
2021/12/16 03:12:29;;;;;;;66.57;37.05;;;;;;;2.77;97.99;99308.13;1752443;81;21209;-58
2021/12/16 03:14:52;;;;;;;65.15;36.25;;;;;;;2.78;98.28;99308.44;1721467;81;21042;-58
2021/12/16 03:17:22;;;;;;;71.33;41.88;;;;;;;2.78;98.39;99308.44;1762844;80;21517;-58
2021/12/16 03:19:59;;;;;;;68.60;35.63;;;;;;;2.79;98.17;99304.22;1765535;80;21024;-57
2021/12/16 03:22:36;;;;;;;68.97;37.78;;;;;;;2.80;98.13;99313.08;1759544;81;21104;-58
2021/12/16 03:32:42;;;;;;;59.67;33.78;;;;;;;2.73;97.45;99310.36;1728241;82;20966;-57
2021/12/16 03:35:13;;;;;;;60.78;36.45;;;;;;;2.75;97.48;99319.55;1771394;79;20972;-57
2021/12/16 03:37:27;;;;;;;61.90;36.13;;;;;;;2.77;97.37;99317.50;1739208;80;21021;-57
2021/12/16 03:40:08;;;;;;;64.17;34.03;;;;;;;2.80;97.38;99316.58;1776771;79;21120;-58
2021/12/16 03:42:39;;;;;;;70.80;42.30;;;;;;;2.85;97.67;99325.88;1743717;80;20965;-58
2021/12/16 03:48:10;;;;;;;71.45;38.50;;;;;;;2.84;97.17;99323.72;1746710;80;20953;-56
2021/12/16 03:50:37;;;;;;;70.40;41.35;;;;;;;2.84;97.04;99318.37;1770415;80;21063;-56
2021/12/16 03:53:04;;;;;;;65.20;35.13;;;;;;;2.87;97.24;99327.84;1743376;81;21029;-57
2021/12/16 03:55:31;;;;;;;74.85;40.35;;;;;;;2.88;97.11;99328.98;1742901;81;21633;-56
2021/12/16 03:57:58;;;;;;;80.55;44.13;;;;;;;2.88;96.81;99330.31;1752677;79;21051;-57
2021/12/16 04:00:30;;;;;;;74.53;40.95;;;;;;;2.82;97.66;99336.48;1776950;80;21001;-57
2021/12/16 04:02:57;;;;;;;74.82;43.13;;;;;;;2.81;97.15;99331.61;1773584;80;21040;-57
2021/12/16 04:05:24;;;;;;;71.40;39.75;;;;;;;2.81;97.34;99330.28;1762163;79;21866;-57
2021/12/16 04:07:51;;;;;;;69.32;41.40;;;;;;;2.82;97.50;99332.47;1736632;82;21642;-57
2021/12/16 04:10:34;;;;;;;62.60;35.43;;;;;;;2.80;97.16;99333.98;1742706;82;21028;-57
2021/12/16 04:13:02;;;;;;;67.67;40.38;;;;;;;2.82;97.31;99333.30;1748580;81;21379;-57
2021/12/16 04:15:29;;;;;;;59.55;31.25;;;;;;;2.87;97.36;99339.38;1741099;81;21033;-57
2021/12/16 04:17:56;;;;;;;58.10;32.30;;;;;;;2.88;96.92;99337.52;1752849;80;21564;-57
2021/12/16 04:20:23;;;;;;;64.50;34.43;;;;;;;2.85;97.11;99337.94;1761865;81;20993;-57
2021/12/16 04:22:51;;;;;;;59.88;33.55;;;;;;;2.85;97.07;99339.27;1762392;80;21131;-57
2021/12/16 04:25:23;;;;;;;66.75;35.80;;;;;;;2.83;96.88;99342.98;1762366;80;21017;-57
2021/12/16 04:27:53;;;;;;;67.10;37.58;;;;;;;2.80;97.48;99344.69;1757450;80;21044;-57
2021/12/16 04:30:23;;;;;;;59.80;33.78;;;;;;;2.82;97.25;99346.68;1753818;81;21131;-57
2021/12/16 04:32:49;;;;;;;;;;;;;;;2.86;96.98;99339.58;1723470;82;21591;-57
2021/12/16 04:35:17;;;;;;;59.95;31.87;;;;;;;2.85;96.85;99341.44;1735236;82;20139;-57
2021/12/16 04:37:44;;;;;;;62.08;33.80;;;;;;;2.82;96.93;99348.02;1743505;80;21662;-57
2021/12/16 04:40:11;;;;;;;66.33;37.90;;;;;;;2.83;96.96;99342.98;1752601;80;20986;-57
2021/12/16 04:42:38;;;;;;;59.33;33.33;;;;;;;2.87;97.25;99337.22;1743962;80;21546;-57
2021/12/16 04:45:07;;;;;;;69.32;39.15;;;;;;;2.87;97.23;99339.38;1743142;82;21190;-57
2021/12/16 04:47:34;;;;;;;;;;;;;;;2.88;97.33;99338.86;1762754;80;20978;-56
2021/12/16 04:50:01;;;;;;;75.10;38.92;;;;;;;2.88;97.34;99343.70;1772610;80;20333;-56
2021/12/16 04:52:28;;;;;;;80.50;47.50;;;;;;;2.87;97.69;99348.75;1749751;81;21593;-56
2021/12/16 04:54:55;;;;;;;80.87;44.90;;;;;;;2.86;97.75;99352.45;1751307;81;21364;-57
2021/12/16 04:57:22;;;;;;;91.15;47.38;;;;;;;2.89;97.63;99352.05;1775768;80;21055;-57
2021/12/16 04:59:49;;;;;;;89.00;46.63;;;;;;;2.88;97.30;99350.91;1772254;79;21060;-57
2021/12/16 05:02:20;;;;;;;83.30;44.53;;;;;;;2.89;97.39;99348.55;1741156;82;21059;-57
2021/12/16 05:04:47;;;;;;;89.15;48.30;;;;;;;2.91;97.14;99348.69;1762289;80;21540;-57
2021/12/16 05:07:15;;;;;;;74.58;42.62;;;;;;;2.89;97.69;99356.06;1762692;80;21041;-57
2021/12/16 05:12:16;;;;;;;81.87;41.92;;;;;;;2.88;97.88;99357.09;1756296;81;22244;-57
2021/12/16 05:14:43;;;;;;;77.12;42.83;;;;;;;2.90;97.40;99349.68;1735588;81;21061;-57
2021/12/16 05:17:23;;;;;;;74.95;40.85;;;;;;;2.94;97.36;99348.79;1751647;81;21020;-56
2021/12/16 05:19:48;;;;;;;70.87;44.00;;;;;;;2.98;97.52;99351.38;1738530;82;21056;-57
2021/12/16 05:24:16;;;;;;;72.92;40.78;;;;;;;3.00;97.27;99360.06;1751125;81;21050;-56
2021/12/16 05:24:40;;;;;;;67.87;41.35;;;;;;;3.00;96.95;99357.38;1739007;80;21021;-57
2021/12/16 05:27:07;;;;;;;71.77;41.05;;;;;;;2.99;97.38;99353.87;1737927;82;21155;-57
2021/12/16 05:29:34;;;;;;;79.90;46.88;;;;;;;3.02;97.12;99357.48;1734895;80;21036;-57
2021/12/16 05:32:01;;;;;;;68.20;43.23;;;;;;;3.02;97.24;99357.48;1734181;82;21411;-57
2021/12/16 05:34:28;;;;;;;72.82;39.55;;;;;;;3.04;97.35;99363.47;1725972;82;21123;-57
2021/12/16 05:36:55;;;;;;;109.55;46.55;;;;;;;2.99;97.89;99359.23;1725271;80;21065;-57
2021/12/16 05:39:22;;;;;;;83.85;41.45;;;;;;;3.02;97.39;99357.48;1729830;80;21122;-57
2021/12/16 05:41:49;;;;;;;77.62;38.42;;;;;;;2.96;96.88;99357.45;1729471;82;21134;-57
2021/12/16 05:44:16;;;;;;;105.40;48.42;;;;;;;2.93;96.93;99361.87;1736314;82;21272;-56
2021/12/16 05:46:43;;;;;;;87.85;45.78;;;;;;;2.93;97.19;99367.22;1723113;82;21583;-57
2021/12/16 05:49:13;;;;;;;79.47;44.13;;;;;;;2.93;96.99;99369.39;1724538;81;21582;-57
2021/12/16 05:51:42;;;;;;;77.05;39.83;;;;;;;2.94;97.85;99368.36;1761216;81;21114;-57
2021/12/16 05:54:09;;;;;;;83.20;46.68;;;;;;;2.96;97.39;99376.19;1728782;82;20986;-58
2021/12/16 05:56:36;;;;;;;78.52;43.08;;;;;;;2.92;97.70;99381.64;1776224;79;21484;-56
2021/12/16 05:59:05;;;;;;;74.32;38.90;;;;;;;2.89;97.65;99376.14;1778452;79;21080;-57
2021/12/16 06:01:36;;;;;;;74.35;43.25;;;;;;;2.90;97.30;99376.97;1772762;79;21044;-57
2021/12/16 06:04:03;;;;;;;76.82;43.50;;;;;;;2.91;97.62;99382.67;1753341;81;21681;-57
2021/12/16 06:06:31;;;;;;;66.55;37.98;;;;;;;2.92;97.32;99381.64;1743094;82;21089;-57
2021/12/16 06:08:58;;;;;;;72.47;37.38;;;;;;;2.95;97.12;99383.91;1777078;79;21337;-57
2021/12/16 06:11:29;;;;;;;61.58;36.15;;;;;;;2.93;97.04;99384.63;1777005;79;21001;-58
2021/12/16 06:14:20;;;;;;;65.42;38.00;;;;;;;2.94;96.96;99383.60;1763802;79;20961;-57
2021/12/16 06:27:47;;;;;;;115.47;65.20;;;;;;;3.01;97.12;99387.97;1679461;84;21102;-57
2021/12/16 06:30:18;;;;;;;98.12;56.35;;;;;;;3.04;97.31;99383.55;1703439;82;20998;-57
2021/12/16 06:32:45;;;;;;;98.42;53.68;;;;;;;3.04;97.49;99387.56;1773489;79;21655;-57
2021/12/16 06:35:12;;;;;;;97.27;54.63;;;;;;;3.05;97.42;99392.41;1765337;79;21269;-57
2021/12/16 06:37:39;;;;;;;76.60;45.25;;;;;;;3.03;97.98;99389.94;1762105;80;21080;-57
2021/12/16 06:40:08;;;;;;;83.27;47.13;;;;;;;3.02;98.72;99393.64;1748060;81;21096;-57
2021/12/16 06:42:37;;;;;;;93.15;54.65;;;;;;;3.04;98.65;99400.95;1734565;81;21109;-57
2021/12/16 06:45:09;;;;;;;;;;;;;;;3.05;98.22;99404.46;1735087;81;21033;-57
2021/12/16 06:47:42;;;;;;;184.37;103.72;;;;;;;3.07;97.95;99399.21;1742700;82;21056;-57
2021/12/16 06:50:03;;;;;;;149.42;87.40;;;;;;;3.12;97.89;99398.63;1736424;82;25667;-57
2021/12/16 06:52:37;;;;;;;114.67;62.93;;;;;;;3.16;97.99;99403.89;1737282;82;21020;-57
2021/12/16 07:00:05;;;;;;;126.72;67.58;;;;;;;3.22;98.10;99406.30;1743423;81;21159;-57
2021/12/16 07:02:42;;;;;;;97.45;56.20;;;;;;;3.23;97.71;99398.06;1752408;80;21028;-57
2021/12/16 07:04:59;;;;;;;91.60;52.08;;;;;;;3.23;98.33;99398.58;1744538;80;21729;-57
2021/12/16 07:07:25;;;;;;;80.53;47.08;;;;;;;3.24;98.23;99400.23;1747675;80;21450;-56
2021/12/16 07:09:52;;;;;;;85.57;50.92;;;;;;;3.24;97.81;99394.36;1734101;81;21104;-57
2021/12/16 07:12:25;;;;;;;88.20;55.60;;;;;;;3.22;97.71;99403.62;1733386;81;21119;-57
2021/12/16 07:14:48;;;;;;;90.65;53.70;;;;;;;3.22;97.83;99397.75;1720031;80;21661;-56
2021/12/16 07:17:16;;;;;;;99.40;58.28;;;;;;;3.21;97.41;99401.45;1741391;81;21071;-57
2021/12/16 07:19:44;;;;;;;114.30;66.15;;;;;;;3.21;97.32;99396.10;1735722;81;21028;-57
2021/12/16 07:22:11;;;;;;;124.00;66.37;;;;;;;3.21;97.73;99392.08;1743184;81;21032;-57
2021/12/16 07:24:38;;;;;;;134.67;80.67;;;;;;;3.22;98.15;99400.95;1731443;81;21403;-57
2021/12/16 07:27:06;;;;;;;193.13;116.47;;;;;;;3.24;98.06;99400.23;1734345;80;20957;-57
2021/12/16 07:29:33;;;;;;;195.10;123.72;;;;;;;3.22;98.27;99400.95;1735027;80;20990;-56
2021/12/16 07:32:01;;;;;;;146.57;89.13;;;;;;;3.23;98.05;99401.25;1737837;80;21583;-57
2021/12/16 07:34:28;;;;;;;134.23;82.10;;;;;;;3.22;98.34;99400.95;1737500;80;21011;-57
2021/12/16 07:36:55;;;;;;;112.50;66.65;;;;;;;3.14;98.52;99391.73;1734697;80;21497;-57
2021/12/16 07:39:29;;;;;;;122.47;79.05;;;;;;;3.10;99.04;99394.81;1729874;81;21028;-57
2021/12/16 07:41:58;;;;;;;100.58;63.90;;;;;;;3.14;98.65;99393.07;1730249;81;21017;-57
2021/12/16 07:44:24;;;;;;;106.95;66.55;;;;;;;3.17;98.68;99398.05;1776779;79;21162;-57
2021/12/16 07:46:55;;;;;;;105.58;59.60;;;;;;;3.20;98.49;99394.97;1776695;79;21033;-57
2021/12/16 07:49:26;;;;;;;113.22;72.58;;;;;;;3.15;99.07;99398.22;1740096;80;21013;-57
2021/12/16 07:51:53;;;;;;;95.12;60.23;;;;;;;3.18;98.97;99393.01;1773339;79;21497;-57
2021/12/16 07:54:21;;;;;;;91.70;55.08;;;;;;;3.20;98.88;99395.79;1751434;80;21480;-57
2021/12/16 07:56:49;;;;;;;90.77;56.05;;;;;;;3.22;98.62;99389.72;1753823;79;21052;-58
2021/12/16 07:59:16;;;;;;;111.53;69.57;;;;;;;3.26;98.47;99394.18;1766158;80;21609;-57
2021/12/16 08:01:45;;;;;;;114.57;69.07;;;;;;;3.29;98.47;99392.43;1737057;79;21079;-57
2021/12/16 08:04:19;;;;;;;97.53;60.83;;;;;;;3.32;98.58;99386.15;1732928;80;21071;-57
2021/12/16 08:06:40;;;;;;;110.42;62.83;;;;;;;3.37;98.20;99384.22;1726691;80;21079;-57
2021/12/16 08:09:08;;;;;;;106.63;68.20;;;;;;;3.43;98.16;99379.41;1730773;80;21092;-56
2021/12/16 08:11:38;;;;;;;118.02;84.65;;;;;;;3.46;98.20;99391.06;1751296;80;21568;-57
2021/12/16 08:14:05;;;;;;;113.00;69.97;;;;;;;3.50;98.27;99389.62;1719851;82;21428;-57
2021/12/16 08:16:32;;;;;;;91.53;58.20;;;;;;;3.55;98.14;99389.03;1773352;79;21029;-57
2021/12/16 08:18:59;;;;;;;101.58;58.73;;;;;;;3.58;98.11;99384.08;1723272;82;21218;-57
2021/12/16 08:21:29;;;;;;;91.42;53.87;;;;;;;3.59;98.02;99380.40;1765988;80;21020;-57
2021/12/16 08:23:56;;;;;;;;;;;;;;;3.64;97.85;99380.60;1737519;81;21084;-57
2021/12/16 08:26:23;;;;;;;241.20;115.28;;;;;;;3.68;98.15;99385.06;1730741;81;21002;-57
2021/12/16 08:28:50;;;;;;;187.95;94.00;;;;;;;3.73;98.06;99374.55;1778579;79;21474;-57
2021/12/16 08:31:17;;;;;;;408.90;181.75;;;;;;;3.75;98.17;99380.52;1731741;81;21473;-57
2021/12/16 08:33:43;;;;;;;267.68;128.80;;;;;;;3.77;98.39;99386.53;1735733;81;21025;-57
2021/12/16 08:36:10;;;;;;;631.00;307.50;;;;;;;3.81;98.43;99390.44;1766536;80;21019;-57
2021/12/16 08:38:38;;;;;;;419.17;212.95;;;;;;;3.82;98.70;99390.75;1717817;82;21052;-57
2021/12/16 08:41:18;;;;;;;288.93;149.50;;;;;;;3.82;98.72;99393.95;1723128;81;21012;-58
2021/12/16 08:43:45;;;;;;;222.90;131.52;;;;;;;3.90;98.28;99396.45;1777208;79;20981;-57
2021/12/16 08:46:14;;;;;;;186.75;117.55;;;;;;;3.94;98.11;99397.70;1776744;79;20973;-57
2021/12/16 08:48:42;;;;;;;225.10;124.18;;;;;;;3.96;97.88;99401.00;1707366;82;21122;-56
2021/12/16 08:51:09;;;;;;;105.80;65.00;;;;;;;3.97;97.97;99393.27;1738350;81;21036;-57
2021/12/16 08:53:36;;;;;;;143.60;88.07;;;;;;;4.02;97.75;99398.86;1740758;81;21016;-57
2021/12/16 08:56:04;;;;;;;234.32;122.37;;;;;;;4.06;97.89;99398.75;1736979;80;21461;-57
2021/12/16 08:58:32;;;;;;;326.65;176.45;;;;;;;4.07;98.09;99385.64;1734434;82;21112;-56
2021/12/16 09:01:08;;;;;;;215.37;122.35;;;;;;;4.12;97.86;99389.06;1718700;82;21029;-57
2021/12/16 09:03:35;;;;;;;174.42;98.05;;;;;;;4.16;97.86;99383.07;1743345;82;21496;-57
2021/12/16 09:06:02;;;;;;;184.25;107.22;;;;;;;4.19;97.76;99385.36;1749381;80;21050;-57
2021/12/16 09:08:29;;;;;;;138.62;83.45;;;;;;;4.23;97.64;99383.08;1771083;79;21018;-57
2021/12/16 09:10:57;;;;;;;110.48;66.87;;;;;;;4.21;97.88;99385.98;1767275;80;21785;-57
2021/12/16 09:13:24;;;;;;;158.57;96.15;;;;;;;4.23;98.02;99383.91;1759380;79;21396;-57
2021/12/16 09:15:55;;;;;;;239.63;137.32;;;;;;;4.27;97.59;99379.46;1766257;80;21397;-57
2021/12/16 09:18:25;;;;;;;163.60;92.35;;;;;;;4.32;97.65;99377.00;1758096;80;20961;-57
2021/12/16 09:20:54;;;;;;;207.40;109.87;;;;;;;4.35;97.79;99383.28;1770703;80;21009;-57
2021/12/16 09:23:20;;;;;;;186.80;106.85;;;;;;;4.34;98.10;99381.12;1768188;80;21102;-57
2021/12/16 09:25:48;;;;;;;190.53;111.37;;;;;;;4.40;98.32;99382.16;1766550;78;21008;-57
2021/12/16 09:28:16;;;;;;;148.72;90.25;;;;;;;4.48;98.00;99377.41;1756095;80;22206;-57
2021/12/16 09:30:43;;;;;;;123.78;76.07;;;;;;;4.58;97.63;99378.33;1756241;80;21405;-57
2021/12/16 09:33:14;;;;;;;113.10;68.35;;;;;;;4.64;97.46;99364.59;1748215;80;21523;-57
2021/12/16 09:35:41;;;;;;;143.85;86.32;;;;;;;4.75;97.48;99363.43;1751390;80;20910;-57
2021/12/16 09:38:09;;;;;;;118.05;72.30;;;;;;;4.82;97.64;99370.14;1730442;82;20878;-57
2021/12/16 09:40:40;;;;;;;118.08;71.53;;;;;;;4.85;97.96;99366.20;1762100;79;21000;-57
2021/12/16 09:43:06;;;;;;;128.45;85.03;;;;;;;4.96;97.31;99355.66;1742945;81;20909;-57
2021/12/16 09:45:32;;;;;;;132.57;87.30;;;;;;;5.01;97.37;99360.37;1752944;79;20960;-56
2021/12/16 09:47:59;;;;;;;105.55;66.87;;;;;;;5.10;97.54;99358.59;1750196;80;22044;-57
2021/12/16 09:50:28;;;;;;;129.50;79.17;;;;;;;5.19;97.58;99355.67;1758445;80;21076;-56
2021/12/16 09:52:55;;;;;;;123.13;74.03;;;;;;;5.26;97.39;99357.30;1753871;80;21998;-57
2021/12/16 09:55:22;;;;;;;173.80;105.70;;;;;;;5.33;97.35;99358.63;1756477;80;21492;-57
2021/12/16 09:57:49;;;;;;;175.80;110.48;;;;;;;5.44;97.36;99359.81;1758771;80;21000;-57
2021/12/16 10:00:22;;;;;;;168.95;99.58;;;;;;;5.54;97.41;99357.48;1720479;81;21048;-57
2021/12/16 10:02:52;;;;;;;150.07;87.33;;;;;;;5.63;97.29;99357.53;1747775;81;21003;-57
2021/12/16 10:05:20;;;;;;;143.68;86.15;;;;;;;5.74;97.20;99357.39;1738806;81;21575;-57
2021/12/16 10:07:47;;;;;;;134.87;82.30;;;;;;;5.82;97.20;99351.77;1741046;82;21603;-57
2021/12/16 10:10:19;;;;;;;125.60;79.60;;;;;;;5.87;97.02;99357.30;1743791;80;21402;-57
2021/12/16 10:12:49;;;;;;;130.55;78.85;;;;;;;5.92;96.85;99356.17;1763262;80;20993;-57
2021/12/16 10:18:05;;;;;;;177.00;104.50;;;;;;;6.07;96.74;99345.11;1754750;80;22043;-57
2021/12/16 10:20:40;;;;;;;145.60;85.95;;;;;;;6.14;96.61;99335.91;1749915;81;21006;-57
2021/12/16 10:23:11;;;;;;;128.60;76.02;;;;;;;6.15;96.47;99338.08;1756719;80;21048;-57
2021/12/16 10:25:46;;;;;;;102.65;58.15;;;;;;;6.15;96.18;99332.70;1737071;80;21045;-57
2021/12/16 10:28:23;;;;;;;75.60;47.27;;;;;;;6.19;96.16;99319.94;1727171;80;21072;-57
2021/12/16 10:31:12;;;;;;;52.67;30.70;;;;;;;6.15;95.59;99321.44;1731429;80;21992;-57
2021/12/16 10:34:03;;;;;;;49.93;31.82;;;;;;;6.21;95.59;99326.45;1739828;81;21079;-57
2021/12/16 10:36:33;;;;;;;51.00;34.25;;;;;;;6.27;95.78;99322.06;1737636;80;21042;-57
2021/12/16 10:39:16;;;;;;;39.63;22.93;;;;;;;6.34;95.83;99325.00;1740565;81;21082;-56
2021/12/16 10:41:52;;;;;;;30.50;17.27;;;;;;;6.44;95.51;99319.94;1734742;80;21466;-57
2021/12/16 10:44:27;;;;;;;29.70;18.70;;;;;;;6.46;94.86;99313.80;1732875;82;21573;-56
2021/12/16 10:47:01;;;;;;;32.58;18.27;;;;;;;6.48;94.89;99308.19;1765446;80;20973;-57
2021/12/16 10:49:36;;;;;;;23.20;14.60;;;;;;;6.47;94.88;99301.98;1757001;80;20996;-57
2021/12/16 10:52:15;;;;;;;29.95;20.32;;;;;;;6.47;94.75;99315.97;1755132;80;20993;-57
2021/12/16 10:54:45;;;;;;;28.80;17.73;;;;;;;6.46;94.79;99307.59;1748239;80;21013;-57
2021/12/16 10:57:18;;;;;;;36.88;21.57;;;;;;;6.46;94.34;99302.20;1755443;80;21044;-57
2021/12/16 10:59:54;;;;;;;32.03;19.90;;;;;;;6.44;94.41;99302.44;1760695;80;21047;-57
2021/12/16 11:02:32;;;;;;;33.60;21.80;;;;;;;6.41;94.26;99300.20;1750477;80;21032;-57
2021/12/16 11:05:12;;;;;;;44.23;25.97;;;;;;;6.40;94.27;99305.25;1771348;80;20996;-57
2021/12/16 11:07:46;;;;;;;41.25;26.00;;;;;;;6.40;94.36;99302.56;1757251;80;21016;-57
2021/12/16 11:10:20;;;;;;;31.02;20.17;;;;;;;6.38;94.30;99301.14;1744868;81;21775;-57
2021/12/16 11:13:11;;;;;;;31.15;21.42;;;;;;;6.36;94.09;99305.93;1760087;80;21037;-57
2021/12/16 11:15:49;;;;;;;28.10;17.67;;;;;;;6.33;93.50;99311.77;1758062;80;21000;-57
2021/12/16 11:18:24;;;;;;;26.85;16.32;;;;;;;6.29;93.79;99313.23;1752387;81;21376;-57
2021/12/16 11:20:57;;;;;;;29.57;20.48;;;;;;;6.26;93.04;99310.47;1760242;80;21551;-57
2021/12/16 11:23:37;;;;;;;34.10;22.27;;;;;;;6.17;93.17;99309.92;1733529;81;20981;-56
2021/12/16 11:26:08;;;;;;;34.73;21.87;;;;;;;6.14;93.54;99317.08;1739605;80;21004;-57
2021/12/16 11:28:43;;;;;;;32.45;16.77;;;;;;;6.10;93.73;99305.11;1728174;82;21079;-57
2021/12/16 11:31:20;;;;;;;32.50;22.67;;;;;;;6.13;93.05;99310.57;1757963;79;20993;-57
2021/12/16 11:33:51;;;;;;;31.50;21.55;;;;;;;6.06;93.39;99310.61;1747548;81;21416;-57
2021/12/16 11:36:33;;;;;;;32.88;21.30;;;;;;;6.02;93.45;99316.67;1739779;80;21402;-57
2021/12/16 11:39:11;;;;;;;25.80;18.70;;;;;;;5.97;93.71;99314.63;1745949;81;21091;-57
2021/12/16 11:41:43;;;;;;;30.23;20.52;;;;;;;5.97;93.84;99320.00;1731681;81;21018;-57
2021/12/16 11:44:22;;;;;;;89.90;46.28;;;;;;;5.97;93.90;99317.31;1744082;81;20991;-57
2021/12/16 11:47:08;;;;;;;149.07;73.90;;;;;;;5.97;93.96;99315.14;1740650;81;21063;-57
2021/12/16 11:49:40;;;;;;;97.53;48.58;;;;;;;5.96;93.97;99318.36;1737241;81;21642;-57
2021/12/16 11:52:27;;;;;;;101.25;44.98;;;;;;;5.97;94.00;99315.97;1734958;81;20994;-57
2021/12/16 11:55:06;;;;;;;67.35;35.58;;;;;;;5.97;93.98;99311.11;1762209;80;21009;-56
2021/12/16 11:57:54;;;;;;;57.13;29.35;;;;;;;5.93;93.96;99311.55;1762384;80;21041;-57
2021/12/16 12:00:29;;;;;;;43.28;24.90;;;;;;;5.92;93.96;99307.22;1747477;80;21003;-57
2021/12/16 12:03:00;;;;;;;44.75;22.85;;;;;;;5.91;94.08;99308.27;1745404;80;21079;-57
2021/12/16 12:05:39;;;;;;;59.25;27.40;;;;;;;5.90;94.08;99307.11;1747669;80;20948;-57
2021/12/16 12:08:23;;;;;;;59.20;30.92;;;;;;;5.89;94.01;99300.05;1750687;80;21320;-57
2021/12/16 12:10:58;;;;;;;80.53;39.35;;;;;;;5.86;94.18;99304.54;1755000;80;20954;-57
2021/12/16 12:13:26;;;;;;;76.53;39.83;;;;;;;5.86;94.22;99312.61;1754499;80;21068;-57
2021/12/16 12:16:15;;;;;;;67.37;34.80;;;;;;;5.81;94.07;99312.42;1745623;80;21000;-57
2021/12/16 12:18:54;;;;;;;82.22;39.88;;;;;;;5.79;94.31;99318.03;1762169;80;21008;-57
2021/12/16 12:21:46;;;;;;;52.62;31.55;;;;;;;5.79;94.22;99320.72;1768298;80;21024;-56
2021/12/16 12:24:27;;;;;;;49.05;29.35;;;;;;;5.75;94.46;99314.14;1762613;79;21007;-57
2021/12/16 12:27:09;;;;;;;48.55;29.65;;;;;;;5.73;95.30;99321.61;1720164;82;21044;-57
2021/12/16 12:29:53;;;;;;;59.00;37.85;;;;;;;5.72;95.12;99323.96;1745868;81;21441;-57
2021/12/16 12:32:30;;;;;;;66.82;39.83;;;;;;;5.75;94.79;99314.66;1737300;81;21004;-57
2021/12/16 12:35:06;;;;;;;91.57;49.33;;;;;;;5.74;94.83;99315.70;1740843;80;21051;-57
2021/12/16 12:37:36;;;;;;;160.35;81.37;;;;;;;5.74;94.90;99311.14;1738643;82;21024;-57
2021/12/16 12:40:18;;;;;;;86.20;48.63;;;;;;;5.74;94.91;99311.67;1757227;80;20985;-57
2021/12/16 12:42:46;;;;;;;98.17;51.73;;;;;;;5.76;95.15;99313.61;1765925;80;21056;-56
2021/12/16 12:45:15;;;;;;;65.45;40.28;;;;;;;5.78;95.01;99320.94;1722609;82;20969;-57
2021/12/16 12:47:44;;;;;;;;;;;;;;;5.77;95.21;99317.42;1744305;81;20983;-57
2021/12/16 12:50:19;;;;;;;113.37;52.10;;;;;;;5.77;95.13;99320.64;1765130;80;20866;-57
2021/12/16 12:52:49;;;;;;;231.70;108.37;;;;;;;5.77;95.38;99321.46;1765539;80;21064;-57
2021/12/16 12:55:29;;;;;;;77.12;44.20;;;;;;;5.79;95.36;99309.13;1728663;82;21877;-57
2021/12/16 12:58:08;;;;;;;59.85;40.80;;;;;;;5.81;95.24;99301.66;1760992;80;20984;-57
2021/12/16 13:00:40;;;;;;;79.50;45.75;;;;;;;5.77;95.28;99306.67;1738843;81;21017;-57
2021/12/16 13:03:17;;;;;;;55.63;35.23;;;;;;;5.76;95.33;99302.86;1757403;80;20960;-57
2021/12/16 13:05:57;;;;;;;50.80;32.25;;;;;;;5.74;95.19;99295.01;1747148;81;21038;-57
2021/12/16 13:08:34;;;;;;;36.20;23.90;;;;;;;5.75;95.31;99299.34;1746275;81;21407;-57
2021/12/16 13:11:05;;;;;;;36.08;23.80;;;;;;;5.76;95.44;99297.48;1730265;81;21051;-57
2021/12/16 13:13:43;;;;;;;43.23;24.75;;;;;;;5.75;95.35;99297.17;1756439;80;21068;-57
2021/12/16 13:27:25;;;;;;;88.50;50.38;;;;;;;5.72;96.00;99299.76;1723877;82;21474;-57
2021/12/16 13:32:45;;;;;;;80.77;47.38;;;;;;;5.70;95.77;99313.13;1765501;80;21044;-57
2021/12/16 13:37:48;;;;;;;69.00;40.48;;;;;;;5.64;96.09;99302.21;1765996;80;20977;-57
2021/12/16 13:40:28;;;;;;;65.87;39.13;;;;;;;5.65;95.87;99297.14;1771963;79;21039;-57
2021/12/16 13:43:12;;;;;;;80.00;46.18;;;;;;;5.63;95.80;99294.34;1761362;80;21013;-57
2021/12/16 13:46:31;;;;;;;89.60;53.15;;;;;;;5.59;95.93;99309.27;1741396;80;21023;-57
2021/12/16 13:49:12;;;;;;;99.22;59.93;;;;;;;5.59;96.64;99303.89;1734041;82;21095;-57
2021/12/16 14:04:08;;;;;;;106.87;63.68;;;;;;;5.54;96.15;99328.72;1735979;82;21553;-57
2021/12/16 14:06:18;;;;;;;109.12;68.95;;;;;;;5.50;96.05;99326.17;1759169;80;21044;-57
2021/12/16 14:08:47;;;;;;;312.48;168.87;;;;;;;5.46;96.40;99330.84;1751350;79;20977;-57
2021/12/16 14:17:17;;;;;;;109.45;71.60;;;;;;;5.49;96.34;99298.17;1734862;82;22142;-57
2021/12/16 14:26:07;;;;;;;103.15;63.65;;;;;;;5.40;96.63;99331.20;1735348;81;21017;-57
2021/12/16 14:31:16;;;;;;;72.70;45.98;;;;;;;5.40;96.70;99331.20;1766900;80;21516;-57
2021/12/16 14:42:43;;;;;;;193.93;116.10;;;;;;;5.37;96.51;99312.79;1739479;82;21041;-57
2021/12/16 14:45:47;;;;;;;162.68;94.75;;;;;;;5.36;96.58;99325.41;1734744;82;21023;-57
2021/12/16 14:48:20;;;;;;;177.85;101.07;;;;;;;5.34;96.35;99322.12;1721681;82;21040;-57
2021/12/16 14:50:41;;;;;;;167.37;102.15;;;;;;;5.32;96.63;99325.55;1733050;82;20997;-57
2021/12/16 14:53:38;;;;;;;113.45;75.25;;;;;;;5.33;96.74;99327.71;1728307;81;21032;-57
2021/12/16 14:56:30;;;;;;;105.37;64.17;;;;;;;5.32;97.67;99326.06;1769751;80;21192;-57